Hovedside
METAR-TAF:

METAR-TAF

Lufthavner :

Platinum, Alaska, USA

breddegrad: 59-01N, lengdegrad: 161-49W, høyde over havet: 3 m

Gjeldene værobservasjon

Denne rapporten ble laget for 1 time og 1 minutter siden, klokken 16:56 UTC
Vind 17 kt fra Sør
Temperatur -1°C
Luftfuktighet 93%
Trykk 1005 hPa
Sikt: 16.1 km
Spredte skyer i en høyde av 3500 ft
Brutte skyer i en høyde av 4500 ft

METAR: PAPM 231656Z AUTO 18017KT 10SM SCT035 BKN045 M01/M02 A2969 RMK AO2 SLP055 T10111022 FZRANO

Tid: 08:57 (17:57 UTC)


TAF: fraværende

Værobservasjoner og værvarsel for over 4000 flyplasser (METAR- og TAF-rapporter).

Tilgjengelige stasjoner er representert av de røde og gule prikkene på kartet.

Hold musepekeren over prikken for å se navnet på stasjonen.

Klikk så for å se værobservasjoner og -varsler.

For å forandre kartet kan du klikke på den grønne knappen med svart kryss for å zoome inn, på den grønne knappen med strek for å zoome ut, eller på de grønne pilene for å se tilstøtende kart.


METAR-TAF: